Berlin Bridge — VRIM5 — position and weather

sailwx.info

Track history (hours):
 
Tides and Currents Weather Stations Pressure Air Temp Water Temp Dewpoint Dewpoint Depression Visibility Wind Speed Wind Dir Waves Ship Positions

Berlin Bridge

Last reported at 2018-Jul-21 13:30 UTC. Time now 2018-Jul-21 13:40 UTC.
Position N 39°53' W 031°03'.

Length 268 m; draft 10.2 m.

Type: Ship (hazmat cat C). MMSI: 477213800.

Date/timePositionNaut miles runAvg speedWind from/ knotsBaromVisibWave heightAir tempDewpointWater temp
2018-Jul-21 13:30N 39°53' W 031°03'2650.4
2018-Jul-21 13:00N 39°54' W 031°36'15167.2 310 / 91032.0 25.022.023.0
2018-Jul-21 12:54N 39°54' W 031°17'718.4
2018-Jul-21 12:30N 39°54' W 031°26'918.5
2018-Jul-21 12:00N 39°55' W 031°38'2112.2
2018-Jul-21 12:00N 39°54' W 031°36'1122.4 280 / 131032.010.8 25.022.021.0
2018-Jul-21 11:30N 39°55' W 031°50'918.8
2018-Jul-21 11:00N 39°56' W 032°02'21918.2
2018-Jul-20 23:00N 40°00' W 036°48'19818.0 050 / 131033.010.8 24.019.418.0
2018-Jul-20 12:00N 40°00' W 041°06'7418.5 180 / 61032.010.8 26.021.521.0
2018-Jul-20 08:00N 39°54' W 042°42'4623.0 270 / 71032.010.8 25.023.522.0
2018-Jul-20 06:00N 39°54' W 043°42'10216.9 220 / 161030.010.8 26.023.125.0
2018-Jul-20 00:00N 39°48' W 045°54'8817.6 190 / 141030.010.8 26.023.120.0
2018-Jul-19 19:00N 39°42' W 047°48'11723.4 240 / 191030.010.8 26.024.623.0
2018-Jul-19 14:00N 39°24' W 050°18'42218.4 220 / 181027.010.8 26.024.625.0
2018-Jul-18 15:00N 38°12' W 059°12'43318.0 230 / 161021.010.8 26.023.125.0
2018-Jul-17 15:00N 36°12' W 067°54'41419.7 230 / 201020.010.8 26.024.625.0
2018-Jul-16 18:00N 33°36' W 075°42'19115.2 180 / 141018.010.8 30.027.329.0
2018-Jul-16 05:25N 32°26' W 079°14'1218.2
2018-Jul-16 04:46N 32°22' W 079°27'518.3
2018-Jul-16 04:30N 32°20' W 079°33'918.4
2018-Jul-16 04:00N 32°16' W 079°42'816.2
2018-Jul-16 03:31N 32°12' W 079°51'918.4
2018-Jul-16 03:00N 32°08' W 080°00'918.2
2018-Jul-16 02:31N 32°03' W 080°09'1017.9
2018-Jul-16 01:58N 31°58' W 080°20'817.4
2018-Jul-16 01:30N 31°56' W 080°28'917.2
2018-Jul-16 01:00N 31°56' W 080°39'713.3
2018-Jul-16 00:30N 31°59' W 080°46'612.8
2018-Jul-16 00:00N 32°02' W 080°53'4 9.1
2018-Jul-15 23:30N 32°04' W 080°57'4 8.2
2018-Jul-15 23:00N 32°05' W 081°02'3 6.7
2018-Jul-15 22:30N 32°05' W 081°06'3 6.9
2018-Jul-15 22:00N 32°08' W 081°08'1 1.3
2018-Jul-15 21:30N 32°07' W 081°08'0 0.0
2018-Jul-15 20:38N 32°07' W 081°08'0 0.1
2018-Jul-15 20:26N 32°07' W 081°08'0 0.0
2018-Jul-15 19:50N 32°07' W 081°08'0 0.0
2018-Jul-15 19:26N 32°07' W 081°08'0 0.0
2018-Jul-15 18:50N 32°07' W 081°08'0 0.0
2018-Jul-15 18:26N 32°07' W 081°08'0 0.0
2018-Jul-15 17:56N 32°07' W 081°08'0 0.0
2018-Jul-15 17:20N 32°07' W 081°08'0 0.0
2018-Jul-15 16:50N 32°07' W 081°08'0 0.0
2018-Jul-15 16:14N 32°07' W 081°08'0 0.0
2018-Jul-15 15:56N 32°07' W 081°08'0 0.0
2018-Jul-15 15:26N 32°07' W 081°08'0 0.0
2018-Jul-15 14:56N 32°07' W 081°08'0 0.0
2018-Jul-15 14:20N 32°07' W 081°08'0 0.1
2018-Jul-15 13:50N 32°07' W 081°08'0 0.0
2018-Jul-15 13:14N 32°07' W 081°08'0 0.0
2018-Jul-15 12:56N 32°07' W 081°08'0 0.0
2018-Jul-15 12:26N 32°07' W 081°08'0 0.0
2018-Jul-15 11:50N 32°07' W 081°08'0 0.0
2018-Jul-15 11:26N 32°07' W 081°08'0 0.0
2018-Jul-15 10:56N 32°07' W 081°08'0 0.0
2018-Jul-15 10:26N 32°07' W 081°08'0 0.0
2018-Jul-15 09:50N 32°07' W 081°08'0 0.0
2018-Jul-15 09:26N 32°07' W 081°08'0 0.1
2018-Jul-15 09:00N 32°07' W 081°08'3 5.1
2018-Jul-15 08:30N 32°05' W 081°06'3 5.6
2018-Jul-15 08:00N 32°05' W 081°03'4 8.1
2018-Jul-15 07:30N 32°04' W 080°58'4 7.7
2018-Jul-15 07:00N 32°02' W 080°54'510.4
2018-Jul-15 06:30N 32°01' W 080°48'714.1
2018-Jul-15 06:00N 31°57' W 080°41'510.3
2018-Jul-15 05:30N 31°56' W 080°35'2811.3
2018-Jul-15 03:03N 32°00' W 080°03'111.9
2018-Jul-15 03:00N 32°01' W 080°02'612.2
2018-Jul-15 02:30N 32°03' W 079°56'26613.4
2018-Jul-14 06:41N 34°37' W 075°36'212.2
2018-Jul-14 06:29N 34°38' W 075°34'612.0
2018-Jul-14 06:00N 34°42' W 075°29'611.6
2018-Jul-14 05:31N 34°46' W 075°24'13912.6
2018-Jul-13 18:29N 36°58' W 076°20'3 6.7
2018-Jul-13 17:59N 36°55' W 076°20'0 0.0
2018-Jul-13 17:09N 36°55' W 076°20'0 0.0
2018-Jul-13 16:59N 36°55' W 076°20'0 0.0
2018-Jul-13 16:29N 36°55' W 076°20'0 0.0
2018-Jul-13 16:00N 36°55' W 076°20'0 0.0
2018-Jul-13 15:30N 36°55' W 076°20'0 0.0
2018-Jul-13 14:59N 36°55' W 076°20'0 0.0
2018-Jul-13 14:00N 36°55' W 076°20'0 0.0
2018-Jul-13 13:29N 36°55' W 076°20'0 0.0
2018-Jul-13 12:59N 36°55' W 076°20'0 0.0
2018-Jul-13 12:29N 36°55' W 076°20'0 0.0
2018-Jul-13 12:00N 36°55' W 076°20'0 0.0
2018-Jul-13 11:30N 36°55' W 076°20'0 0.0
2018-Jul-13 10:59N 36°55' W 076°20'0 0.0
2018-Jul-13 10:30N 36°55' W 076°20'0 0.0
2018-Jul-13 09:59N 36°55' W 076°20'0 0.0
2018-Jul-13 09:29N 36°55' W 076°20'0 0.0
2018-Jul-13 09:00N 36°55' W 076°20'0 0.0
2018-Jul-13 08:29N 36°55' W 076°20'0 0.0
2018-Jul-13 08:00N 36°55' W 076°20'0 0.0
2018-Jul-13 07:30N 36°55' W 076°20'0 0.0
2018-Jul-13 07:00N 36°55' W 076°20'0 0.0
2018-Jul-13 06:30N 36°55' W 076°20'0 0.0
2018-Jul-13 05:47N 36°55' W 076°20'0 0.0
2018-Jul-13 05:29N 36°55' W 076°20'0 0.0
2018-Jul-13 05:00N 36°55' W 076°20'0 0.0
2018-Jul-13 04:30N 36°55' W 076°20'0 0.0
2018-Jul-13 04:00N 36°55' W 076°20'0 0.0
2018-Jul-13 03:30N 36°55' W 076°20'0 0.0
2018-Jul-13 03:00N 36°55' W 076°20'0 0.0
2018-Jul-13 02:30N 36°55' W 076°20'0 0.0
2018-Jul-13 01:59N 36°55' W 076°20'0 0.0
2018-Jul-13 01:30N 36°55' W 076°20'0 0.0
2018-Jul-13 01:00N 36°55' W 076°20'0 0.0
2018-Jul-13 00:30N 36°55' W 076°20'0 0.0
2018-Jul-13 00:00N 36°55' W 076°20'0 0.0
2018-Jul-12 23:29N 36°55' W 076°20'0 0.0
2018-Jul-12 22:59N 36°55' W 076°20'0 0.0
2018-Jul-12 22:30N 36°55' W 076°20'0 0.5
2018-Jul-12 22:00N 36°55' W 076°20'2 3.5
2018-Jul-12 21:30N 36°56' W 076°20'107 7.4
2018-Jul-12 07:07N 38°01' W 074°33'213.2
2018-Jul-12 07:00N 38°02' W 074°32'713.2
2018-Jul-12 06:27N 38°06' W 074°24'1313.0
2018-Jul-12 05:29N 38°14' W 074°11'8412.5
2018-Jul-11 22:48N 39°36' W 073°53'311.8
2018-Jul-11 22:30N 39°39' W 073°52'611.9
2018-Jul-11 21:59N 39°46' W 073°52'612.1
2018-Jul-11 21:30N 39°51' W 073°51'612.0
2018-Jul-11 21:00N 39°57' W 073°51'611.9
2018-Jul-11 20:30N 40°03' W 073°50'611.8
2018-Jul-11 20:00N 40°09' W 073°50'17 9.9
2018-Jul-11 18:20N 40°26' W 073°50'410.8
2018-Jul-11 18:00N 40°28' W 073°53'816.2
2018-Jul-11 17:30N 40°33' W 074°02'612.9
2018-Jul-11 17:01N 40°39' W 074°06'3 5.1
2018-Jul-11 16:30N 40°39' W 074°09'1 2.4
2018-Jul-11 16:00N 40°40' W 074°08'0 0.0
2018-Jul-11 15:30N 40°40' W 074°08'0 0.0
2018-Jul-11 15:00N 40°40' W 074°08'0 0.0
2018-Jul-11 14:30N 40°40' W 074°08'0 0.0
2018-Jul-11 14:00N 40°40' W 074°08'0 0.0
2018-Jul-11 13:30N 40°40' W 074°08'  
Track history (hours):
 
Tides and Currents Weather Stations Pressure Air Temp Water Temp Dewpoint Dewpoint Depression Visibility Wind Speed Wind Dir Waves Ship Positions

Berlin Bridge

Last reported at 2018-Jul-21 13:30 UTC. Time now 2018-Jul-21 13:40 UTC.
Position N 39°53' W 031°03'.

Length 268 m; draft 10.2 m.

Type: Ship (hazmat cat C). MMSI: 477213800.

Date/timePositionNaut miles runAvg speedWind from/ knotsBaromVisibWave heightAir tempDewpointWater temp
2018-Jul-21 13:30N 39°53' W 031°03'2650.4
2018-Jul-21 13:00N 39°54' W 031°36'15167.2 310 / 91032.0 25.022.023.0
2018-Jul-21 12:54N 39°54' W 031°17'718.4
2018-Jul-21 12:30N 39°54' W 031°26'918.5
2018-Jul-21 12:00N 39°55' W 031°38'2112.2
2018-Jul-21 12:00N 39°54' W 031°36'1122.4 280 / 131032.010.8 25.022.021.0
2018-Jul-21 11:30N 39°55' W 031°50'918.8
2018-Jul-21 11:00N 39°56' W 032°02'21918.2
2018-Jul-20 23:00N 40°00' W 036°48'19818.0 050 / 131033.010.8 24.019.418.0
2018-Jul-20 12:00N 40°00' W 041°06'7418.5 180 / 61032.010.8 26.021.521.0
2018-Jul-20 08:00N 39°54' W 042°42'4623.0 270 / 71032.010.8 25.023.522.0
2018-Jul-20 06:00N 39°54' W 043°42'10216.9 220 / 161030.010.8 26.023.125.0
2018-Jul-20 00:00N 39°48' W 045°54'8817.6 190 / 141030.010.8 26.023.120.0
2018-Jul-19 19:00N 39°42' W 047°48'11723.4 240 / 191030.010.8 26.024.623.0
2018-Jul-19 14:00N 39°24' W 050°18'42218.4 220 / 181027.010.8 26.024.625.0
2018-Jul-18 15:00N 38°12' W 059°12'43318.0 230 / 161021.010.8 26.023.125.0
2018-Jul-17 15:00N 36°12' W 067°54'41419.7 230 / 201020.010.8 26.024.625.0
2018-Jul-16 18:00N 33°36' W 075°42'19115.2 180 / 141018.010.8 30.027.329.0
2018-Jul-16 05:25N 32°26' W 079°14'1218.2
2018-Jul-16 04:46N 32°22' W 079°27'518.3
2018-Jul-16 04:30N 32°20' W 079°33'918.4
2018-Jul-16 04:00N 32°16' W 079°42'816.2
2018-Jul-16 03:31N 32°12' W 079°51'918.4
2018-Jul-16 03:00N 32°08' W 080°00'918.2
2018-Jul-16 02:31N 32°03' W 080°09'1017.9
2018-Jul-16 01:58N 31°58' W 080°20'817.4
2018-Jul-16 01:30N 31°56' W 080°28'917.2
2018-Jul-16 01:00N 31°56' W 080°39'713.3
2018-Jul-16 00:30N 31°59' W 080°46'612.8
2018-Jul-16 00:00N 32°02' W 080°53'4 9.1
2018-Jul-15 23:30N 32°04' W 080°57'4 8.2
2018-Jul-15 23:00N 32°05' W 081°02'3 6.7
2018-Jul-15 22:30N 32°05' W 081°06'3 6.9
2018-Jul-15 22:00N 32°08' W 081°08'1 1.3
2018-Jul-15 21:30N 32°07' W 081°08'0 0.0
2018-Jul-15 20:38N 32°07' W 081°08'0 0.1
2018-Jul-15 20:26N 32°07' W 081°08'0 0.0
2018-Jul-15 19:50N 32°07' W 081°08'0 0.0
2018-Jul-15 19:26N 32°07' W 081°08'0 0.0
2018-Jul-15 18:50N 32°07' W 081°08'0 0.0
2018-Jul-15 18:26N 32°07' W 081°08'0 0.0
2018-Jul-15 17:56N 32°07' W 081°08'0 0.0
2018-Jul-15 17:20N 32°07' W 081°08'0 0.0
2018-Jul-15 16:50N 32°07' W 081°08'0 0.0
2018-Jul-15 16:14N 32°07' W 081°08'0 0.0
2018-Jul-15 15:56N 32°07' W 081°08'0 0.0
2018-Jul-15 15:26N 32°07' W 081°08'0 0.0
2018-Jul-15 14:56N 32°07' W 081°08'0 0.0
2018-Jul-15 14:20N 32°07' W 081°08'0 0.1
2018-Jul-15 13:50N 32°07' W 081°08'0 0.0
2018-Jul-15 13:14N 32°07' W 081°08'0 0.0
2018-Jul-15 12:56N 32°07' W 081°08'0 0.0
2018-Jul-15 12:26N 32°07' W 081°08'0 0.0
2018-Jul-15 11:50N 32°07' W 081°08'0 0.0
2018-Jul-15 11:26N 32°07' W 081°08'0 0.0
2018-Jul-15 10:56N 32°07' W 081°08'0 0.0
2018-Jul-15 10:26N 32°07' W 081°08'0 0.0
2018-Jul-15 09:50N 32°07' W 081°08'0 0.0
2018-Jul-15 09:26N 32°07' W 081°08'0 0.1
2018-Jul-15 09:00N 32°07' W 081°08'3 5.1
2018-Jul-15 08:30N 32°05' W 081°06'3 5.6
2018-Jul-15 08:00N 32°05' W 081°03'4 8.1
2018-Jul-15 07:30N 32°04' W 080°58'4 7.7
2018-Jul-15 07:00N 32°02' W 080°54'510.4
2018-Jul-15 06:30N 32°01' W 080°48'714.1
2018-Jul-15 06:00N 31°57' W 080°41'510.3
2018-Jul-15 05:30N 31°56' W 080°35'2811.3
2018-Jul-15 03:03N 32°00' W 080°03'111.9
2018-Jul-15 03:00N 32°01' W 080°02'612.2
2018-Jul-15 02:30N 32°03' W 079°56'26613.4
2018-Jul-14 06:41N 34°37' W 075°36'212.2
2018-Jul-14 06:29N 34°38' W 075°34'612.0
2018-Jul-14 06:00N 34°42' W 075°29'611.6
2018-Jul-14 05:31N 34°46' W 075°24'13912.6
2018-Jul-13 18:29N 36°58' W 076°20'3 6.7
2018-Jul-13 17:59N 36°55' W 076°20'0 0.0
2018-Jul-13 17:09N 36°55' W 076°20'0 0.0
2018-Jul-13 16:59N 36°55' W 076°20'0 0.0
2018-Jul-13 16:29N 36°55' W 076°20'0 0.0
2018-Jul-13 16:00N 36°55' W 076°20'0 0.0
2018-Jul-13 15:30N 36°55' W 076°20'0 0.0
2018-Jul-13 14:59N 36°55' W 076°20'0 0.0
2018-Jul-13 14:00N 36°55' W 076°20'0 0.0
2018-Jul-13 13:29N 36°55' W 076°20'0 0.0
2018-Jul-13 12:59N 36°55' W 076°20'0 0.0
2018-Jul-13 12:29N 36°55' W 076°20'0 0.0
2018-Jul-13 12:00N 36°55' W 076°20'0 0.0
2018-Jul-13 11:30N 36°55' W 076°20'0 0.0
2018-Jul-13 10:59N 36°55' W 076°20'0 0.0
2018-Jul-13 10:30N 36°55' W 076°20'0 0.0
2018-Jul-13 09:59N 36°55' W 076°20'0 0.0
2018-Jul-13 09:29N 36°55' W 076°20'0 0.0
2018-Jul-13 09:00N 36°55' W 076°20'0 0.0
2018-Jul-13 08:29N 36°55' W 076°20'0 0.0
2018-Jul-13 08:00N 36°55' W 076°20'0 0.0
2018-Jul-13 07:30N 36°55' W 076°20'0 0.0
2018-Jul-13 07:00N 36°55' W 076°20'0 0.0
2018-Jul-13 06:30N 36°55' W 076°20'0 0.0
2018-Jul-13 05:47N 36°55' W 076°20'0 0.0
2018-Jul-13 05:29N 36°55' W 076°20'0 0.0
2018-Jul-13 05:00N 36°55' W 076°20'0 0.0
2018-Jul-13 04:30N 36°55' W 076°20'0 0.0
2018-Jul-13 04:00N 36°55' W 076°20'0 0.0
2018-Jul-13 03:30N 36°55' W 076°20'0 0.0
2018-Jul-13 03:00N 36°55' W 076°20'0 0.0
2018-Jul-13 02:30N 36°55' W 076°20'0 0.0
2018-Jul-13 01:59N 36°55' W 076°20'0 0.0
2018-Jul-13 01:30N 36°55' W 076°20'0 0.0
2018-Jul-13 01:00N 36°55' W 076°20'0 0.0
2018-Jul-13 00:30N 36°55' W 076°20'0 0.0
2018-Jul-13 00:00N 36°55' W 076°20'0 0.0
2018-Jul-12 23:29N 36°55' W 076°20'0 0.0
2018-Jul-12 22:59N 36°55' W 076°20'0 0.0
2018-Jul-12 22:30N 36°55' W 076°20'0 0.5
2018-Jul-12 22:00N 36°55' W 076°20'2 3.5
2018-Jul-12 21:30N 36°56' W 076°20'107 7.4
2018-Jul-12 07:07N 38°01' W 074°33'213.2
2018-Jul-12 07:00N 38°02' W 074°32'713.2
2018-Jul-12 06:27N 38°06' W 074°24'1313.0
2018-Jul-12 05:29N 38°14' W 074°11'8412.5
2018-Jul-11 22:48N 39°36' W 073°53'311.8
2018-Jul-11 22:30N 39°39' W 073°52'611.9
2018-Jul-11 21:59N 39°46' W 073°52'612.1
2018-Jul-11 21:30N 39°51' W 073°51'612.0
2018-Jul-11 21:00N 39°57' W 073°51'611.9
2018-Jul-11 20:30N 40°03' W 073°50'611.8
2018-Jul-11 20:00N 40°09' W 073°50'17 9.9
2018-Jul-11 18:20N 40°26' W 073°50'410.8
2018-Jul-11 18:00N 40°28' W 073°53'816.2
2018-Jul-11 17:30N 40°33' W 074°02'612.9
2018-Jul-11 17:01N 40°39' W 074°06'3 5.1
2018-Jul-11 16:30N 40°39' W 074°09'1 2.4
2018-Jul-11 16:00N 40°40' W 074°08'0 0.0
2018-Jul-11 15:30N 40°40' W 074°08'0 0.0
2018-Jul-11 15:00N 40°40' W 074°08'0 0.0
2018-Jul-11 14:30N 40°40' W 074°08'0 0.0
2018-Jul-11 14:00N 40°40' W 074°08'0 0.0
2018-Jul-11 13:30N 40°40' W 074°08'  

Dump ship's entire track history